createdAt,value
2022-09-17T00:00:55.100Z,8.12
2022-09-17T00:02:07.116Z,8.09
2022-09-17T00:03:09.778Z,8.08
2022-09-17T00:04:11.996Z,8.06
2022-09-17T00:05:13.884Z,8.05
2022-09-17T00:06:16.054Z,8.04
2022-09-17T00:07:18.217Z,8.04
2022-09-17T00:08:19.875Z,8.04
2022-09-17T00:09:21.482Z,8.04
2022-09-17T00:10:24.219Z,8.05
2022-09-17T00:11:30.329Z,8.04
2022-09-17T00:12:32.158Z,8.04
2022-09-17T00:13:33.862Z,8.05
2022-09-17T00:14:35.673Z,8.05
2022-09-17T00:15:45.788Z,8.04
2022-09-17T00:16:49.286Z,8.04
2022-09-17T00:17:57.757Z,8.03
2022-09-17T00:19:00.854Z,8.01
2022-09-17T00:20:02.975Z,8.00
2022-09-17T00:21:04.697Z,7.99
2022-09-17T00:22:06.397Z,7.98
2022-09-17T00:23:09.595Z,7.97
2022-09-17T00:24:13.643Z,7.97
2022-09-17T00:25:15.506Z,7.96
2022-09-17T00:26:17.175Z,7.95
2022-09-17T00:27:18.799Z,7.95
2022-09-17T00:28:20.555Z,7.96
2022-09-17T00:29:22.230Z,7.95
2022-09-17T00:30:23.906Z,7.95
2022-09-17T00:31:28.007Z,7.93
2022-09-17T00:32:30.219Z,7.92
2022-09-17T00:33:31.869Z,7.92
2022-09-17T00:34:33.544Z,7.92
2022-09-17T00:35:35.183Z,7.90
2022-09-17T00:36:39.015Z,7.89
2022-09-17T00:37:40.939Z,7.88
2022-09-17T00:38:43.392Z,7.87
2022-09-17T00:39:45.347Z,7.86
2022-09-17T00:40:46.991Z,7.85
2022-09-17T00:41:48.627Z,7.85
2022-09-17T00:42:53.219Z,7.84
2022-09-17T00:44:00.785Z,7.84
2022-09-17T00:45:02.886Z,7.84
2022-09-17T00:46:33.146Z,7.83
2022-09-17T00:47:56.935Z,7.84
2022-09-17T00:49:10.908Z,7.83
2022-09-17T00:50:26.314Z,7.83
2022-09-17T00:51:41.620Z,7.83
2022-09-17T00:52:50.061Z,7.82
2022-09-17T00:53:52.005Z,7.82
2022-09-17T00:55:11.694Z,7.80
2022-09-17T00:56:25.350Z,7.79
2022-09-17T00:57:28.191Z,7.79
2022-09-17T00:58:37.728Z,7.78
2022-09-17T00:59:42.454Z,7.77
2022-09-17T01:00:44.226Z,7.78
2022-09-17T01:01:46.483Z,7.77
2022-09-17T01:02:48.334Z,7.78
2022-09-17T01:03:50.596Z,7.79
2022-09-17T01:04:52.302Z,7.79
2022-09-17T01:06:14.254Z,7.80
2022-09-17T01:07:27.628Z,7.81
2022-09-17T01:09:04.330Z,7.82
2022-09-17T01:10:33.631Z,7.83
2022-09-17T01:11:59.534Z,7.84
2022-09-17T01:13:12.935Z,7.84
2022-09-17T01:14:33.233Z,7.85
2022-09-17T01:15:42.972Z,7.84
2022-09-17T01:17:05.484Z,7.84
2022-09-17T01:18:21.698Z,7.84
2022-09-17T01:19:48.213Z,7.84
2022-09-17T01:21:23.766Z,7.84
2022-09-17T01:22:52.967Z,7.84
2022-09-17T01:24:22.208Z,7.84
2022-09-17T01:26:02.060Z,7.84
2022-09-17T01:27:28.432Z,7.86
2022-09-17T01:28:53.083Z,7.86
2022-09-17T01:30:36.985Z,7.86
2022-09-17T01:31:56.675Z,7.86
2022-09-17T01:33:28.781Z,7.87
2022-09-17T01:34:45.687Z,7.86
2022-09-17T01:36:17.483Z,7.84
2022-09-17T01:37:30.806Z,7.83
2022-09-17T01:38:51.482Z,7.81
2022-09-17T01:40:14.281Z,7.80
2022-09-17T01:41:35.227Z,7.81
2022-09-17T01:43:00.975Z,7.80
2022-09-17T01:44:14.214Z,7.80
2022-09-17T01:45:28.807Z,7.81
2022-09-17T01:46:46.847Z,7.82
2022-09-17T01:47:55.410Z,7.81
2022-09-17T01:49:02.926Z,7.80
2022-09-17T01:50:12.959Z,7.80
2022-09-17T01:51:20.116Z,7.80
2022-09-17T01:52:26.135Z,7.79
2022-09-17T01:53:51.635Z,7.77
2022-09-17T01:55:00.220Z,7.75
2022-09-17T01:56:04.334Z,7.74
2022-09-17T01:57:14.532Z,7.74
2022-09-17T01:58:49.646Z,7.74
2022-09-17T01:59:59.678Z,7.73
2022-09-17T02:01:09.838Z,7.72
2022-09-17T02:02:32.464Z,7.71
2022-09-17T02:03:42.123Z,7.71
2022-09-17T02:04:55.943Z,7.70
2022-09-17T02:06:11.747Z,7.71
2022-09-17T02:07:21.028Z,7.70
2022-09-17T02:08:28.669Z,7.71
2022-09-17T02:09:42.934Z,7.71
2022-09-17T02:10:51.531Z,7.71
2022-09-17T02:11:58.954Z,7.69
2022-09-17T02:13:09.344Z,7.70
2022-09-17T02:14:21.507Z,7.69
2022-09-17T02:15:30.463Z,7.69
2022-09-17T02:16:36.698Z,7.68
2022-09-17T02:17:59.387Z,7.68
2022-09-17T02:19:18.995Z,7.68
2022-09-17T02:20:29.878Z,7.67
2022-09-17T02:21:34.135Z,7.67
2022-09-17T02:22:43.703Z,7.66
2022-09-17T02:24:01.818Z,7.67
2022-09-17T02:25:26.411Z,7.67
2022-09-17T02:26:28.143Z,7.67
2022-09-17T02:27:53.691Z,7.67
2022-09-17T02:29:05.424Z,7.67
2022-09-17T02:30:07.776Z,7.67
2022-09-17T02:31:10.450Z,7.66
2022-09-17T02:32:13.275Z,7.65
2022-09-17T02:33:15.872Z,7.64
2022-09-17T02:34:19.869Z,7.62
2022-09-17T02:35:22.818Z,7.61
2022-09-17T02:36:25.003Z,7.61
2022-09-17T02:37:27.709Z,7.61
2022-09-17T02:38:31.040Z,7.61
2022-09-17T02:39:33.389Z,7.61
2022-09-17T02:40:49.580Z,7.61
2022-09-17T02:42:05.007Z,7.60
2022-09-17T02:43:29.242Z,7.60
2022-09-17T02:44:50.733Z,7.60
2022-09-17T02:46:07.907Z,7.60
2022-09-17T02:47:39.245Z,7.60
2022-09-17T02:48:50.944Z,7.58
2022-09-17T02:50:18.498Z,7.57
2022-09-17T02:51:36.898Z,7.56
2022-09-17T02:53:08.644Z,7.53
2022-09-17T02:54:31.250Z,7.52
2022-09-17T02:55:51.155Z,7.51
2022-09-17T02:57:12.596Z,7.49
2022-09-17T02:58:16.837Z,7.48
2022-09-17T02:59:29.524Z,7.47
2022-09-17T03:00:33.054Z,7.46
2022-09-17T03:01:59.792Z,7.45
2022-09-17T03:03:07.832Z,7.44
2022-09-17T03:04:15.910Z,7.44
2022-09-17T03:05:21.074Z,7.43
2022-09-17T03:06:23.481Z,7.42
2022-09-17T03:07:26.523Z,7.42
2022-09-17T03:08:41.733Z,7.41
2022-09-17T03:09:43.599Z,7.40
2022-09-17T03:10:45.303Z,7.39
2022-09-17T03:11:47.086Z,7.36
2022-09-17T03:12:49.511Z,7.35
2022-09-17T03:13:51.174Z,7.33
2022-09-17T03:14:53.011Z,7.33
2022-09-17T03:15:54.846Z,7.32
2022-09-17T03:16:57.439Z,7.30
2022-09-17T03:17:59.068Z,7.31
2022-09-17T03:19:00.714Z,7.30
2022-09-17T03:20:02.753Z,7.28
2022-09-17T03:21:04.654Z,7.28
2022-09-17T03:22:06.273Z,7.28
2022-09-17T03:23:07.949Z,7.28
2022-09-17T03:24:11.568Z,7.27
2022-09-17T03:25:13.468Z,7.27
2022-09-17T03:26:15.176Z,7.27
2022-09-17T03:27:16.953Z,7.27
2022-09-17T03:28:18.575Z,7.26
2022-09-17T03:29:20.657Z,7.26
2022-09-17T03:30:22.275Z,7.25
2022-09-17T03:31:24.070Z,7.24
2022-09-17T03:32:25.842Z,7.22
2022-09-17T03:33:27.522Z,7.21
2022-09-17T03:34:29.142Z,7.20
2022-09-17T03:35:30.800Z,7.19
2022-09-17T03:36:32.446Z,7.17
2022-09-17T03:37:34.248Z,7.16
2022-09-17T03:38:36.202Z,7.16
2022-09-17T03:39:37.914Z,7.15
2022-09-17T03:40:40.681Z,7.15
2022-09-17T03:41:42.445Z,7.12
2022-09-17T03:42:44.067Z,7.12
2022-09-17T03:43:45.778Z,7.11
2022-09-17T03:44:47.494Z,7.10
2022-09-17T03:45:49.174Z,7.11
2022-09-17T03:46:51.309Z,7.10
2022-09-17T03:47:53.034Z,7.09
2022-09-17T03:48:54.912Z,7.08
2022-09-17T03:49:56.542Z,7.07
2022-09-17T03:50:58.391Z,7.07
2022-09-17T03:52:00.097Z,7.06
2022-09-17T03:53:01.746Z,7.04
2022-09-17T03:54:03.534Z,7.03
2022-09-17T03:55:05.709Z,7.02
2022-09-17T03:56:08.299Z,7.02
2022-09-17T03:57:09.960Z,7.01
2022-09-17T03:58:11.782Z,7.02
2022-09-17T03:59:13.513Z,7.00
2022-09-17T04:00:17.408Z,6.99
2022-09-17T04:01:19.160Z,6.98
2022-09-17T04:02:21.214Z,6.98
2022-09-17T04:03:23.287Z,6.97
2022-09-17T04:04:25.124Z,6.97
2022-09-17T04:05:26.771Z,6.97
2022-09-17T04:06:28.398Z,6.97
2022-09-17T04:07:30.097Z,6.96
2022-09-17T04:08:32.629Z,6.97
2022-09-17T04:09:35.408Z,6.97
2022-09-17T04:10:37.312Z,6.97
2022-09-17T04:11:38.995Z,6.97
2022-09-17T04:12:40.653Z,6.97
2022-09-17T04:13:42.314Z,6.98
2022-09-17T04:14:43.946Z,6.99
2022-09-17T04:15:46.974Z,7.01
2022-09-17T04:16:48.649Z,7.03
2022-09-17T04:17:50.466Z,7.04
2022-09-17T04:18:52.098Z,7.06
2022-09-17T04:19:53.718Z,7.08
2022-09-17T04:20:55.409Z,7.09
2022-09-17T04:21:57.088Z,7.11
2022-09-17T04:22:59.153Z,7.12
2022-09-17T04:24:00.961Z,7.14
2022-09-17T04:25:02.669Z,7.15
2022-09-17T04:26:04.606Z,7.17
2022-09-17T04:27:06.273Z,7.18
2022-09-17T04:28:08.511Z,7.17
2022-09-17T04:29:10.208Z,7.19
2022-09-17T04:30:12.835Z,7.20
2022-09-17T04:31:14.501Z,7.22
2022-09-17T04:32:16.258Z,7.22
2022-09-17T04:33:18.136Z,7.23
2022-09-17T04:34:19.842Z,7.25
2022-09-17T04:35:21.520Z,7.26
2022-09-17T04:36:23.197Z,7.27
2022-09-17T04:37:25.677Z,7.29
2022-09-17T04:38:27.807Z,7.30
2022-09-17T04:39:29.530Z,7.32
2022-09-17T04:40:31.350Z,7.34
2022-09-17T04:41:33.004Z,7.37
2022-09-17T04:42:34.718Z,7.40
2022-09-17T04:43:36.388Z,7.43
2022-09-17T04:44:38.235Z,7.46
2022-09-17T04:45:39.916Z,7.49
2022-09-17T04:46:41.798Z,7.53
2022-09-17T04:47:43.461Z,7.55
2022-09-17T04:48:45.229Z,7.58
2022-09-17T04:49:46.881Z,7.60
2022-09-17T04:50:48.595Z,7.60
2022-09-17T04:51:50.289Z,7.62
2022-09-17T04:52:51.899Z,7.63
2022-09-17T04:53:53.609Z,7.65
2022-09-17T04:54:55.329Z,7.67
2022-09-17T04:55:56.978Z,7.68
2022-09-17T04:56:59.692Z,7.69
2022-09-17T04:58:01.399Z,7.71
2022-09-17T04:59:03.495Z,7.72
2022-09-17T05:00:10.459Z,7.72
2022-09-17T05:01:13.888Z,7.73
2022-09-17T05:02:15.680Z,7.75
2022-09-17T05:03:17.330Z,7.75
2022-09-17T05:04:19.187Z,7.77
2022-09-17T05:05:22.855Z,7.79
2022-09-17T05:06:24.561Z,7.81
2022-09-17T05:07:26.174Z,7.83
2022-09-17T05:08:27.865Z,7.85
2022-09-17T05:09:29.545Z,7.86
2022-09-17T05:10:31.171Z,7.86
2022-09-17T05:11:32.897Z,7.88
2022-09-17T05:12:34.763Z,7.88
2022-09-17T05:13:36.495Z,7.88
2022-09-17T05:14:38.214Z,7.91
2022-09-17T05:15:39.818Z,7.91
2022-09-17T05:16:41.782Z,7.93
2022-09-17T05:17:43.559Z,7.93
2022-09-17T05:18:45.467Z,7.95
2022-09-17T05:19:47.101Z,7.96
2022-09-17T05:20:49.203Z,7.97
2022-09-17T05:21:50.811Z,7.98
2022-09-17T05:22:52.924Z,7.99
2022-09-17T05:23:54.676Z,8.00
2022-09-17T05:24:56.724Z,8.01
2022-09-17T05:26:00.427Z,8.03
2022-09-17T05:27:02.046Z,8.04
2022-09-17T05:28:03.671Z,8.05
2022-09-17T05:29:05.373Z,8.07
2022-09-17T05:30:08.368Z,8.07
2022-09-17T05:31:10.546Z,8.07
2022-09-17T05:32:12.271Z,8.08
2022-09-17T05:33:13.874Z,8.09
2022-09-17T05:34:15.498Z,8.10
2022-09-17T05:35:17.327Z,8.11
2022-09-17T05:36:18.939Z,8.11
2022-09-17T05:37:20.564Z,8.12
2022-09-17T05:38:22.504Z,8.13
2022-09-17T05:39:27.529Z,8.13
2022-09-17T05:40:30.562Z,8.14
2022-09-17T05:41:32.237Z,8.15
2022-09-17T05:42:34.250Z,8.16
2022-09-17T05:43:35.942Z,8.19
2022-09-17T05:44:37.564Z,8.21
2022-09-17T05:45:39.415Z,8.23
2022-09-17T05:46:41.101Z,8.26
2022-09-17T05:47:42.779Z,8.28
2022-09-17T05:48:44.550Z,8.30
2022-09-17T05:49:46.191Z,8.34
2022-09-17T05:50:47.885Z,8.36
2022-09-17T05:51:51.854Z,8.39
2022-09-17T05:52:54.924Z,8.42
2022-09-17T05:53:56.526Z,8.46
2022-09-17T05:54:58.134Z,8.50
2022-09-17T05:56:00.137Z,8.54
2022-09-17T05:57:01.858Z,8.52
2022-09-17T05:58:13.289Z,8.56
2022-09-17T05:59:15.540Z,8.56
2022-09-17T06:00:18.331Z,8.54
2022-09-17T06:01:19.979Z,8.54
2022-09-17T06:02:21.627Z,8.55
2022-09-17T06:03:23.304Z,8.56
2022-09-17T06:04:24.961Z,8.58
2022-09-17T06:05:26.778Z,8.58
2022-09-17T06:06:29.658Z,8.58
2022-09-17T06:07:31.662Z,8.59
2022-09-17T06:08:36.709Z,8.61
2022-09-17T06:09:38.850Z,8.62
2022-09-17T06:10:41.482Z,8.62
2022-09-17T06:11:43.099Z,8.62
2022-09-17T06:12:44.957Z,8.63
2022-09-17T06:13:46.619Z,8.65
2022-09-17T06:14:49.071Z,8.66
2022-09-17T06:15:52.867Z,8.68
2022-09-17T06:16:56.243Z,8.70
2022-09-17T06:17:57.934Z,8.75
2022-09-17T06:18:59.742Z,8.76
2022-09-17T06:20:02.182Z,8.77
2022-09-17T06:21:05.578Z,8.76
2022-09-17T06:22:07.261Z,8.74
2022-09-17T06:23:12.734Z,8.73
2022-09-17T06:24:17.015Z,8.72
2022-09-17T06:25:18.888Z,8.71
2022-09-17T06:26:20.477Z,8.72
2022-09-17T06:27:22.276Z,8.73
2022-09-17T06:28:24.964Z,8.75
2022-09-17T06:29:26.865Z,8.75
2022-09-17T06:30:28.655Z,8.77
2022-09-17T06:31:30.850Z,8.77
2022-09-17T06:32:33.210Z,8.77
2022-09-17T06:33:36.207Z,8.78
2022-09-17T06:34:37.828Z,8.78
2022-09-17T06:35:39.434Z,8.79
2022-09-17T06:36:41.044Z,8.78
2022-09-17T06:37:42.661Z,8.78
2022-09-17T06:38:45.762Z,8.78
2022-09-17T06:39:47.539Z,8.80
2022-09-17T06:40:53.099Z,8.80
2022-09-17T06:41:54.754Z,8.82
2022-09-17T06:43:00.206Z,8.83
2022-09-17T06:44:02.284Z,8.85
2022-09-17T06:45:08.720Z,8.86
2022-09-17T06:46:13.041Z,8.88
2022-09-17T06:47:14.861Z,8.89
2022-09-17T06:48:16.508Z,8.89
2022-09-17T06:49:19.038Z,8.88
2022-09-17T06:50:20.860Z,8.89
2022-09-17T06:51:22.656Z,8.90
2022-09-17T06:52:24.361Z,8.91
2022-09-17T06:53:26.023Z,8.92
2022-09-17T06:54:27.621Z,8.91
2022-09-17T06:55:29.263Z,8.91
2022-09-17T06:56:31.079Z,8.90
2022-09-17T06:57:32.749Z,8.90
2022-09-17T06:58:41.183Z,8.89
2022-09-17T06:59:42.975Z,8.88
2022-09-17T07:00:44.918Z,8.86
2022-09-17T07:01:47.687Z,8.85
2022-09-17T07:03:00.678Z,8.85
2022-09-17T07:04:03.275Z,8.84
2022-09-17T07:05:05.715Z,8.82
2022-09-17T07:06:10.540Z,8.81
2022-09-17T07:07:12.415Z,8.80
2022-09-17T07:08:14.220Z,8.80
2022-09-17T07:09:15.841Z,8.80
2022-09-17T07:10:20.881Z,8.83
2022-09-17T07:11:22.522Z,8.83
2022-09-17T07:12:24.306Z,8.83
2022-09-17T07:13:26.633Z,8.82
2022-09-17T07:14:28.278Z,8.82
2022-09-17T07:15:29.999Z,8.82
2022-09-17T07:16:35.954Z,8.81
2022-09-17T07:17:40.205Z,8.80
2022-09-17T07:18:41.911Z,8.78
2022-09-17T07:19:43.541Z,8.78
2022-09-17T07:20:45.171Z,8.78
2022-09-17T07:21:49.091Z,8.77
2022-09-17T07:22:58.431Z,8.77
2022-09-17T07:24:00.244Z,8.77
2022-09-17T07:25:02.528Z,8.76
2022-09-17T07:26:08.078Z,8.78
2022-09-17T07:27:09.827Z,8.80
2022-09-17T07:28:11.519Z,8.81
2022-09-17T07:29:13.150Z,8.80
2022-09-17T07:30:15.498Z,8.81
2022-09-17T07:31:17.341Z,8.83
2022-09-17T07:32:19.019Z,8.82
2022-09-17T07:33:23.621Z,8.81
2022-09-17T07:34:28.040Z,8.79
2022-09-17T07:35:29.654Z,8.79
2022-09-17T07:36:31.292Z,8.80
2022-09-17T07:37:32.939Z,8.83
2022-09-17T07:38:35.153Z,8.86
2022-09-17T07:39:36.883Z,8.88
2022-09-17T07:40:38.593Z,8.90
2022-09-17T07:41:40.824Z,8.93
2022-09-17T07:42:42.440Z,8.97
2022-09-17T07:43:45.037Z,8.99
2022-09-17T07:44:47.046Z,9.01
2022-09-17T07:45:48.626Z,9.03
2022-09-17T07:46:50.325Z,9.04
2022-09-17T07:47:51.974Z,9.04
2022-09-17T07:48:53.670Z,9.05
2022-09-17T07:49:55.319Z,9.06
2022-09-17T07:50:57.825Z,9.07
2022-09-17T07:52:05.101Z,9.09
2022-09-17T07:53:06.734Z,9.13
2022-09-17T07:54:08.391Z,9.16
2022-09-17T07:55:10.074Z,9.19
2022-09-17T07:56:12.139Z,9.21
2022-09-17T07:57:13.989Z,9.23
2022-09-17T07:58:15.614Z,9.25
2022-09-17T07:59:17.450Z,9.28
2022-09-17T08:00:19.418Z,9.33
2022-09-17T08:01:22.609Z,9.36
2022-09-17T08:02:24.747Z,9.38
2022-09-17T08:03:26.761Z,9.40
2022-09-17T08:04:28.604Z,9.41
2022-09-17T08:05:32.367Z,9.42
2022-09-17T08:06:38.070Z,9.42
2022-09-17T08:07:40.143Z,9.42
2022-09-17T08:08:42.491Z,9.40
2022-09-17T08:09:44.397Z,9.39
2022-09-17T08:10:46.010Z,9.41
2022-09-17T08:11:56.361Z,9.43
2022-09-17T08:12:59.111Z,9.43
2022-09-17T08:14:00.969Z,9.42
2022-09-17T08:15:02.826Z,9.40
2022-09-17T08:16:13.376Z,9.38
2022-09-17T08:17:15.171Z,9.36
2022-09-17T08:18:17.393Z,9.35
2022-09-17T08:19:19.176Z,9.35
2022-09-17T08:20:21.950Z,9.35
2022-09-17T08:21:24.461Z,9.35
2022-09-17T08:22:26.646Z,9.34
2022-09-17T08:23:30.080Z,9.34
2022-09-17T08:24:32.173Z,9.34
2022-09-17T08:25:33.997Z,9.33
2022-09-17T08:26:36.051Z,9.34
2022-09-17T08:27:38.949Z,9.34
2022-09-17T08:28:45.555Z,9.36
2022-09-17T08:29:47.224Z,9.37
2022-09-17T08:30:50.328Z,9.38
2022-09-17T08:31:52.097Z,9.41
2022-09-17T08:32:56.785Z,9.44
2022-09-17T08:33:58.535Z,9.46
2022-09-17T08:35:00.245Z,9.48
2022-09-17T08:36:03.371Z,9.51
2022-09-17T08:37:05.326Z,9.54
2022-09-17T08:38:07.482Z,9.57
2022-09-17T08:39:11.105Z,9.60
2022-09-17T08:40:23.182Z,9.62
2022-09-17T08:41:39.934Z,9.66
2022-09-17T08:43:11.652Z,9.71
2022-09-17T08:44:40.753Z,9.81
2022-09-17T08:45:42.574Z,9.89
2022-09-17T08:46:49.430Z,9.92
2022-09-17T08:47:51.269Z,9.94
2022-09-17T08:49:06.491Z,9.95
2022-09-17T08:50:27.187Z,9.98
2022-09-17T08:51:43.543Z,9.99
2022-09-17T08:53:23.383Z,10.00
2022-09-17T08:54:33.692Z,10.09
2022-09-17T08:56:11.509Z,10.10
2022-09-17T08:57:43.579Z,10.08
2022-09-17T08:59:08.254Z,10.07
2022-09-17T09:00:13.019Z,10.07
2022-09-17T09:01:35.098Z,10.10
2022-09-17T09:03:07.372Z,10.12
2022-09-17T09:04:33.980Z,10.15
2022-09-17T09:05:48.390Z,10.17
2022-09-17T09:07:00.655Z,10.21
2022-09-17T09:08:33.623Z,10.24
2022-09-17T09:09:46.414Z,10.25
2022-09-17T09:11:01.746Z,10.24
2022-09-17T09:12:33.544Z,10.24
2022-09-17T09:14:05.450Z,10.24
2022-09-17T09:15:36.043Z,10.25
2022-09-17T09:16:42.584Z,10.28
2022-09-17T09:17:48.530Z,10.31
2022-09-17T09:18:56.163Z,10.33
2022-09-17T09:19:58.033Z,10.37
2022-09-17T09:21:25.598Z,10.43
2022-09-17T09:22:47.001Z,10.51
2022-09-17T09:24:01.272Z,10.56
2022-09-17T09:25:15.711Z,10.62
2022-09-17T09:26:23.605Z,10.66
2022-09-17T09:27:29.589Z,10.69
2022-09-17T09:28:39.912Z,10.74
2022-09-17T09:30:07.359Z,10.78
2022-09-17T09:31:26.893Z,10.82
2022-09-17T09:32:58.351Z,10.84
2022-09-17T09:34:03.770Z,10.85
2022-09-17T09:35:22.374Z,10.83
2022-09-17T09:36:30.117Z,10.82
2022-09-17T09:37:39.169Z,10.81
2022-09-17T09:38:50.058Z,10.81
2022-09-17T09:39:55.107Z,10.79
2022-09-17T09:41:08.967Z,10.76
2022-09-17T09:42:23.674Z,10.73
2022-09-17T09:44:12.612Z,10.69
2022-09-17T09:45:23.282Z,10.64
2022-09-17T09:46:31.088Z,10.60
2022-09-17T09:48:07.215Z,10.58
2022-09-17T09:49:41.984Z,10.55
2022-09-17T09:51:10.511Z,10.53
2022-09-17T09:52:24.142Z,10.49
2022-09-17T09:53:42.410Z,10.45
2022-09-17T09:55:05.646Z,10.45
2022-09-17T09:56:43.940Z,10.49
2022-09-17T09:58:08.602Z,10.60
2022-09-17T09:59:13.388Z,10.71
2022-09-17T10:00:29.753Z,10.82
2022-09-17T10:01:38.973Z,10.95
2022-09-17T10:02:41.869Z,11.05
2022-09-17T10:03:46.230Z,11.14
2022-09-17T10:04:52.748Z,11.22
2022-09-17T10:06:08.238Z,11.33
2022-09-17T10:07:11.770Z,11.40
2022-09-17T10:08:16.155Z,11.45
2022-09-17T10:09:21.567Z,11.50
2022-09-17T10:10:23.280Z,11.56
2022-09-17T10:11:32.412Z,11.62
2022-09-17T10:12:34.050Z,11.76
2022-09-17T10:13:37.899Z,11.85
2022-09-17T10:14:44.925Z,11.92
2022-09-17T10:15:46.716Z,11.96
2022-09-17T10:16:48.502Z,11.98
2022-09-17T10:18:17.259Z,11.99
2022-09-17T10:19:25.025Z,11.99
2022-09-17T10:20:26.683Z,12.00
2022-09-17T10:21:34.625Z,12.06
2022-09-17T10:22:44.682Z,12.08
2022-09-17T10:23:47.402Z,12.09
2022-09-17T10:24:51.043Z,12.10
2022-09-17T10:25:55.576Z,12.08
2022-09-17T10:27:14.131Z,12.04
2022-09-17T10:28:24.905Z,12.00
2022-09-17T10:29:26.749Z,12.04
2022-09-17T10:30:28.615Z,12.13
2022-09-17T10:31:52.905Z,12.26
2022-09-17T10:33:25.446Z,12.36
2022-09-17T10:34:30.221Z,12.37
2022-09-17T10:35:33.850Z,12.37
2022-09-17T10:36:44.798Z,12.38
2022-09-17T10:37:52.066Z,12.41
2022-09-17T10:38:53.783Z,12.47
2022-09-17T10:39:56.688Z,12.61
2022-09-17T10:41:15.007Z,12.78
2022-09-17T10:42:18.626Z,12.91
2022-09-17T10:43:23.192Z,12.97
2022-09-17T10:44:28.183Z,13.09
2022-09-17T10:45:31.414Z,13.35
2022-09-17T10:46:34.284Z,13.57
2022-09-17T10:47:42.425Z,13.77
2022-09-17T10:48:59.462Z,13.92
2022-09-17T10:50:08.239Z,14.17
2022-09-17T10:51:19.266Z,14.49
2022-09-17T10:52:34.339Z,14.74
2022-09-17T10:53:55.838Z,14.96
2022-09-17T10:55:19.031Z,15.27
2022-09-17T10:56:36.720Z,15.60
2022-09-17T10:58:11.854Z,15.77
2022-09-17T10:59:25.618Z,15.73
2022-09-17T11:00:52.308Z,15.66
2022-09-17T11:02:11.316Z,15.54
2022-09-17T11:03:42.759Z,15.48
2022-09-17T11:05:21.429Z,15.54
2022-09-17T11:06:44.876Z,15.41
2022-09-17T11:08:16.928Z,15.52
2022-09-17T11:09:56.668Z,15.60
2022-09-17T11:11:26.038Z,15.66
2022-09-17T11:12:49.719Z,15.42
2022-09-17T11:14:37.902Z,15.12
2022-09-17T11:15:52.763Z,14.75
2022-09-17T11:17:06.787Z,14.54
2022-09-17T11:18:20.522Z,14.34
2022-09-17T11:19:58.952Z,14.14
2022-09-17T11:21:34.114Z,13.92
2022-09-17T11:22:57.691Z,13.74
2022-09-17T11:24:02.419Z,13.64
2022-09-17T11:25:15.922Z,13.63
2022-09-17T11:26:36.350Z,13.85
2022-09-17T11:28:13.274Z,14.22
2022-09-17T11:29:17.920Z,14.48
2022-09-17T11:30:22.145Z,14.53
2022-09-17T11:31:48.511Z,14.50
2022-09-17T11:33:24.954Z,14.32
2022-09-17T11:34:45.514Z,14.07
2022-09-17T11:36:00.216Z,13.83
2022-09-17T11:37:37.249Z,13.61
2022-09-17T11:38:43.635Z,13.40
2022-09-17T11:40:01.785Z,13.28
2022-09-17T11:41:12.673Z,13.17
2022-09-17T11:42:43.374Z,13.09
2022-09-17T11:44:18.960Z,13.00
2022-09-17T11:45:29.251Z,12.88
2022-09-17T11:46:43.271Z,12.80
2022-09-17T11:47:53.901Z,12.71
2022-09-17T11:49:10.421Z,12.62
2022-09-17T11:50:27.762Z,12.52
2022-09-17T11:51:42.114Z,12.41
2022-09-17T11:53:18.246Z,12.32
2022-09-17T11:55:13.941Z,12.26
2022-09-17T11:56:25.433Z,12.20
2022-09-17T11:57:35.068Z,12.16
2022-09-17T11:58:52.216Z,12.12
2022-09-17T12:00:06.055Z,12.06
2022-09-17T12:01:28.684Z,12.01
2022-09-17T12:02:49.085Z,11.99
2022-09-17T12:04:00.555Z,11.94
2022-09-17T12:05:14.330Z,11.91
2022-09-17T12:06:28.808Z,11.90
2022-09-17T12:07:33.399Z,11.90
2022-09-17T12:09:06.287Z,11.91
2022-09-17T12:10:32.584Z,11.92
2022-09-17T12:11:48.304Z,11.96
2022-09-17T12:13:07.770Z,12.00
2022-09-17T12:14:30.990Z,12.07
2022-09-17T12:15:39.306Z,12.08
2022-09-17T12:16:46.341Z,12.05
2022-09-17T12:18:20.630Z,12.03
2022-09-17T12:19:45.471Z,12.00
2022-09-17T12:20:54.041Z,11.96
2022-09-17T12:22:04.409Z,11.93
2022-09-17T12:23:14.995Z,11.88
2022-09-17T12:24:27.075Z,11.84
2022-09-17T12:25:42.550Z,11.79
2022-09-17T12:27:11.588Z,11.75
2022-09-17T12:28:30.690Z,11.75
2022-09-17T12:29:47.196Z,11.75
2022-09-17T12:31:05.898Z,11.75
2022-09-17T12:32:28.649Z,11.78
2022-09-17T12:33:46.235Z,11.78
2022-09-17T12:35:12.508Z,11.80
2022-09-17T12:36:40.910Z,11.83
2022-09-17T12:38:05.690Z,11.88
2022-09-17T12:39:22.466Z,11.90
2022-09-17T12:40:55.415Z,11.91
2022-09-17T12:42:24.675Z,11.98
2022-09-17T12:43:32.314Z,12.06
2022-09-17T12:44:52.543Z,12.12
2022-09-17T12:45:57.053Z,12.15
2022-09-17T12:47:40.078Z,12.17
2022-09-17T12:49:11.358Z,12.21
2022-09-17T12:50:19.826Z,12.22
2022-09-17T12:51:57.911Z,12.24
2022-09-17T12:53:20.742Z,12.27
2022-09-17T12:54:35.816Z,12.32
2022-09-17T12:56:12.206Z,12.32
2022-09-17T12:57:42.576Z,12.37
2022-09-17T12:59:21.847Z,12.42
2022-09-17T13:00:23.462Z,12.47
2022-09-17T13:01:25.186Z,12.51
2022-09-17T13:02:38.699Z,12.58
2022-09-17T13:03:50.810Z,12.72
2022-09-17T13:05:20.352Z,12.82
2022-09-17T13:06:37.293Z,12.89
2022-09-17T13:07:52.714Z,12.93
2022-09-17T13:09:04.691Z,12.99
2022-09-17T13:10:47.653Z,13.01
2022-09-17T13:12:05.706Z,13.03
2022-09-17T13:13:38.122Z,13.08
2022-09-17T13:15:11.941Z,13.25
2022-09-17T13:16:43.667Z,13.34
2022-09-17T13:18:23.659Z,13.38
2022-09-17T13:19:42.935Z,13.36
2022-09-17T13:21:03.649Z,13.34
2022-09-17T13:22:21.357Z,13.31
2022-09-17T13:23:40.884Z,13.26
2022-09-17T13:24:47.507Z,13.25
2022-09-17T13:25:54.195Z,13.24
2022-09-17T13:26:59.037Z,13.21
2022-09-17T13:28:08.959Z,13.17
2022-09-17T13:29:11.530Z,13.14
2022-09-17T13:30:20.845Z,13.15
2022-09-17T13:31:44.590Z,13.16
2022-09-17T13:32:53.758Z,13.15
2022-09-17T13:34:00.935Z,13.16
2022-09-17T13:35:11.432Z,13.19
2022-09-17T13:36:46.130Z,13.18
2022-09-17T13:37:56.903Z,13.17
2022-09-17T13:39:00.275Z,13.17
2022-09-17T13:40:04.578Z,13.15
2022-09-17T13:41:21.759Z,13.11
2022-09-17T13:42:29.072Z,13.05
2022-09-17T13:43:30.893Z,13.01
2022-09-17T13:44:38.954Z,13.01
2022-09-17T13:45:58.848Z,13.00
2022-09-17T13:47:21.456Z,12.96
2022-09-17T13:48:28.690Z,12.90
2022-09-17T13:49:30.580Z,12.88
2022-09-17T13:50:41.267Z,12.86
2022-09-17T13:51:47.696Z,12.84
2022-09-17T13:52:51.863Z,12.86
2022-09-17T13:53:56.997Z,12.90
2022-09-17T13:54:59.897Z,12.94
2022-09-17T13:56:22.872Z,12.98
2022-09-17T13:57:27.146Z,13.00
2022-09-17T13:58:36.342Z,13.00
2022-09-17T13:59:38.459Z,13.00
2022-09-17T14:00:59.892Z,13.01
2022-09-17T14:02:13.654Z,13.02
2022-09-17T14:03:52.451Z,13.03
2022-09-17T14:05:33.440Z,13.06
2022-09-17T14:06:34.996Z,13.07
2022-09-17T14:07:47.349Z,13.09
2022-09-17T14:08:51.873Z,13.11
2022-09-17T14:09:56.545Z,13.14
2022-09-17T14:11:02.379Z,13.16
2022-09-17T14:12:50.953Z,13.20
2022-09-17T14:13:58.297Z,13.29
2022-09-17T14:14:59.935Z,13.30
2022-09-17T14:16:02.750Z,13.31
2022-09-17T14:17:04.506Z,13.31
2022-09-17T14:18:27.840Z,13.30
2022-09-17T14:19:51.595Z,13.28
2022-09-17T14:21:05.768Z,13.24
2022-09-17T14:22:07.284Z,13.21
2022-09-17T14:23:12.875Z,13.18
2022-09-17T14:24:24.680Z,13.16
2022-09-17T14:25:42.883Z,13.16
2022-09-17T14:26:50.464Z,13.15
2022-09-17T14:27:59.881Z,13.14
2022-09-17T14:29:33.463Z,13.11
2022-09-17T14:30:35.382Z,13.11
2022-09-17T14:31:37.333Z,13.12
2022-09-17T14:33:00.755Z,13.11
2022-09-17T14:34:16.564Z,13.09
2022-09-17T14:35:20.908Z,13.03
2022-09-17T14:36:24.347Z,12.98
2022-09-17T14:37:28.982Z,12.94
2022-09-17T14:38:44.575Z,12.91
2022-09-17T14:39:49.015Z,12.87
2022-09-17T14:41:03.770Z,12.84
2022-09-17T14:42:16.343Z,12.82
2022-09-17T14:44:00.669Z,12.80
2022-09-17T14:45:14.034Z,12.74
2022-09-17T14:47:00.767Z,12.68
2022-09-17T14:48:28.527Z,12.64
2022-09-17T14:49:35.998Z,12.60
2022-09-17T14:50:38.049Z,12.59
2022-09-17T14:51:40.976Z,12.58
2022-09-17T14:52:49.829Z,12.56
2022-09-17T14:54:20.894Z,12.55
2022-09-17T14:55:26.446Z,12.54
2022-09-17T14:56:28.181Z,12.55
2022-09-17T14:57:30.104Z,12.55
2022-09-17T14:58:37.628Z,12.56
2022-09-17T14:59:54.345Z,12.55
2022-09-17T15:00:56.508Z,12.55
2022-09-17T15:01:58.353Z,12.58
2022-09-17T15:03:00.265Z,12.59
2022-09-17T15:04:23.009Z,12.60
2022-09-17T15:05:39.428Z,12.63
2022-09-17T15:06:43.868Z,12.66
2022-09-17T15:07:46.577Z,12.67
2022-09-17T15:08:48.722Z,12.69
2022-09-17T15:09:52.805Z,12.71
2022-09-17T15:10:59.490Z,12.72
2022-09-17T15:12:02.170Z,12.74
2022-09-17T15:13:07.709Z,12.79
2022-09-17T15:14:20.694Z,12.79
2022-09-17T15:15:26.538Z,12.83